Time;durP1;ratioP1;P1;durP2;ratioP2;P2;SDS_P1;SDS_P2;PMS_P1;PMS_P2;Temp;Humidity;BMP_temperature;BMP_pressure;BME280_temperature;BME280_humidity;BME280_pressure;Samples;Min_cycle;Max_cycle;Signal;HPM_P1;HPM_P2
2021/12/09 00:01:52;;;;;;;35.00;20.27;;;1.70;99.90;;;2.45;100.00;98845.38;5054894;28;20190;-63
2021/12/09 00:04:28;;;;;;;32.97;19.27;;;1.70;99.90;;;2.60;100.00;98846.00;5054885;28;20220;-63
2021/12/09 00:06:58;;;;;;;36.53;20.50;;;1.70;99.90;;;2.49;100.00;98855.38;5054298;28;20205;-62
2021/12/09 00:09:26;;;;;;;35.77;20.30;;;1.70;99.90;;;2.67;100.00;98875.25;5054836;28;20207;-63
2021/12/09 00:11:54;;;;;;;33.73;19.87;;;1.70;99.90;;;2.63;100.00;98881.97;5054337;28;20643;-63
2021/12/09 00:14:26;;;;;;;34.97;20.27;;;1.70;99.90;;;2.70;100.00;98883.66;5054594;28;20198;-63
2021/12/09 00:17:01;;;;;;;34.70;21.03;;;1.80;99.90;;;2.62;100.00;98875.03;5054533;28;20185;-64
2021/12/09 00:19:29;;;;;;;34.60;19.47;;;1.80;99.90;;;2.39;100.00;98880.69;5054688;28;20184;-62
2021/12/09 00:21:58;;;;;;;39.73;21.97;;;1.70;99.90;;;2.58;100.00;98871.13;5054164;28;20270;-62
2021/12/09 00:24:27;;;;;;;37.67;21.13;;;1.70;99.90;;;2.47;100.00;98859.25;5054413;28;20673;-63
2021/12/09 00:26:55;;;;;;;34.23;19.50;;;1.70;99.90;;;2.41;100.00;98860.88;5054015;28;20288;-64
2021/12/09 00:29:25;;;;;;;36.47;20.37;;;1.70;99.90;;;2.48;100.00;98851.09;5054055;28;20223;-63
2021/12/09 00:31:53;;;;;;;36.77;21.23;;;1.60;99.90;;;2.62;100.00;98851.13;5054078;28;20198;-62
2021/12/09 00:34:30;;;;;;;37.13;20.53;;;1.70;99.90;;;2.59;100.00;98836.38;5054144;28;20209;-63
2021/12/09 00:37:02;;;;;;;33.03;19.60;;;1.70;99.90;;;2.39;100.00;98838.19;5053724;28;20581;-63
2021/12/09 00:39:30;;;;;;;37.27;21.47;;;1.70;99.90;;;2.53;100.00;98847.84;5054270;28;20267;-62
2021/12/09 00:41:58;;;;;;;38.47;20.90;;;1.70;99.90;;;2.45;100.00;98863.97;5053663;28;20201;-63
2021/12/09 00:44:26;;;;;;;37.10;21.53;;;1.70;99.90;;;2.47;100.00;98854.75;5053494;28;20198;-63
2021/12/09 00:46:54;;;;;;;37.03;20.37;;;1.70;99.90;;;2.32;100.00;98864.72;5053970;28;20205;-63
2021/12/09 00:49:23;;;;;;;37.80;21.97;;;1.60;99.90;;;2.48;100.00;98866.22;5053727;28;20282;-62
2021/12/09 00:51:51;;;;;;;39.03;20.80;;;1.70;99.90;;;2.56;100.00;98865.19;5053994;28;20197;-63
2021/12/09 00:54:19;;;;;;;37.33;22.53;;;1.70;99.90;;;2.49;100.00;98865.19;5053965;28;20248;-63
2021/12/09 00:56:47;;;;;;;34.87;20.33;;;1.70;99.90;;;2.49;100.00;98867.84;5054299;28;20205;-64
2021/12/09 00:59:15;;;;;;;34.83;19.73;;;1.60;99.90;;;2.46;100.00;98866.41;5053693;28;20213;-64
2021/12/09 01:01:43;;;;;;;37.27;20.73;;;1.60;99.90;;;2.56;100.00;98857.22;5053906;28;20233;-63
2021/12/09 01:04:12;;;;;;;37.33;21.13;;;1.70;99.90;;;2.54;100.00;98849.47;5053842;28;20193;-63
2021/12/09 01:06:41;;;;;;;39.80;22.17;;;1.70;99.90;;;2.66;100.00;98852.34;5054194;28;20196;-64
2021/12/09 01:09:10;;;;;;;39.90;21.43;;;1.80;99.90;;;2.61;100.00;98858.28;5053895;28;20231;-63
2021/12/09 01:11:38;;;;;;;39.83;22.57;;;1.70;99.90;;;2.54;100.00;98857.44;5054101;28;20382;-62
2021/12/09 01:14:06;;;;;;;34.70;20.80;;;1.70;99.90;;;2.30;100.00;98871.28;5053955;28;20228;-64
2021/12/09 01:16:34;;;;;;;38.43;21.63;;;1.60;99.90;;;2.47;100.00;98876.00;5054153;28;20202;-62
2021/12/09 01:19:03;;;;;;;35.33;20.43;;;1.60;99.90;;;2.49;100.00;98879.31;5053694;28;20198;-64
2021/12/09 01:21:31;;;;;;;35.47;20.87;;;1.60;99.90;;;2.38;100.00;98879.06;5053482;28;20237;-63
2021/12/09 01:24:00;;;;;;;37.73;20.80;;;1.60;99.90;;;2.40;100.00;98880.47;5053946;28;20224;-64
2021/12/09 01:26:29;;;;;;;38.83;21.53;;;1.60;99.90;;;2.49;100.00;98879.31;5054083;28;20360;-62
2021/12/09 01:28:58;;;;;;;36.87;20.63;;;1.60;99.90;;;2.47;100.00;98881.34;5053336;28;20223;-63
2021/12/09 01:31:30;;;;;;;39.60;21.33;;;1.60;99.90;;;2.44;100.00;98883.56;5053964;28;20201;-63
2021/12/09 01:34:01;;;;;;;37.67;21.37;;;1.60;99.90;;;2.55;100.00;98876.84;5053754;28;20189;-62
2021/12/09 01:36:31;;;;;;;36.17;20.50;;;1.60;99.90;;;2.46;100.00;98879.69;5053588;28;20200;-64
2021/12/09 01:39:02;;;;;;;39.07;21.60;;;1.60;99.90;;;2.42;100.00;98886.41;5053099;28;20197;-63
2021/12/09 01:41:30;;;;;;;36.73;20.57;;;1.60;99.90;;;2.30;100.00;98881.91;5053162;28;20548;-62
2021/12/09 01:43:58;;;;;;;37.33;21.70;;;1.50;99.90;;;2.43;100.00;98882.75;5053480;28;20204;-64
2021/12/09 01:46:26;;;;;;;37.27;23.17;;;1.60;99.90;;;2.47;100.00;98884.00;5053613;28;20201;-62
2021/12/09 01:48:54;;;;;;;36.70;21.57;;;1.60;99.90;;;2.37;100.00;98886.19;5052946;28;20257;-63
2021/12/09 01:51:22;;;;;;;39.47;21.37;;;1.60;99.90;;;2.70;100.00;98888.97;5053283;28;20198;-64
2021/12/09 01:53:52;;;;;;;40.10;22.80;;;1.60;99.90;;;2.61;100.00;98906.09;5053203;28;20196;-63
2021/12/09 01:56:24;;;;;;;39.90;22.97;;;1.70;99.90;;;2.48;100.00;98896.28;5052659;28;20727;-63
2021/12/09 01:58:57;;;;;;;40.07;23.20;;;1.60;99.90;;;2.54;100.00;98904.47;5051921;28;20209;-62
2021/12/09 02:01:26;;;;;;;37.40;22.07;;;1.60;99.90;;;2.35;100.00;98898.06;5053072;28;20186;-64
2021/12/09 02:03:56;;;;;;;40.90;23.17;;;1.60;99.90;;;2.40;100.00;98892.97;5052126;28;20211;-64
2021/12/09 02:06:25;;;;;;;37.33;22.67;;;1.60;99.90;;;2.32;100.00;98893.94;5052193;28;20263;-63
2021/12/09 02:08:55;;;;;;;40.27;22.00;;;1.60;99.90;;;2.34;100.00;98897.22;5052095;28;20208;-63
2021/12/09 02:11:25;;;;;;;39.63;21.30;;;1.60;99.90;;;2.40;100.00;98901.75;5052196;28;20200;-63
2021/12/09 02:13:56;;;;;;;37.83;21.70;;;1.60;99.90;;;2.38;100.00;98895.00;5051935;28;20198;-63
2021/12/09 02:16:25;;;;;;;40.27;21.93;;;1.60;99.90;;;2.27;100.00;98893.72;5052027;28;20295;-63
2021/12/09 02:18:54;;;;;;;37.70;22.57;;;1.60;99.90;;;2.42;100.00;98886.41;5051771;28;20295;-63
2021/12/09 02:21:27;;;;;;;38.03;21.73;;;1.60;99.90;;;2.49;100.00;98873.97;5051970;28;20239;-63
2021/12/09 02:23:59;;;;;;;40.27;23.37;;;1.60;99.90;;;2.36;100.00;98876.59;5052208;28;20186;-63
2021/12/09 02:26:31;;;;;;;40.13;21.80;;;1.60;99.90;;;2.41;100.00;98871.50;5052271;28;20192;-63
2021/12/09 02:28:59;;;;;;;38.93;21.33;;;1.60;99.90;;;2.46;100.00;98870.91;5051785;28;20192;-63
2021/12/09 02:31:29;;;;;;;37.53;21.73;;;1.60;99.90;;;2.33;100.00;98868.22;5051918;28;20197;-62
2021/12/09 02:33:59;;;;;;;37.97;22.13;;;1.50;99.90;;;2.28;100.00;98866.13;5051781;28;20186;-65
2021/12/09 02:36:35;;;;;;;43.47;23.63;;;1.50;99.90;;;2.45;100.00;98867.41;5052243;28;20198;-63
2021/12/09 02:39:04;;;;;;;41.83;22.67;;;1.60;99.90;;;2.37;100.00;98878.22;5051839;28;20600;-62
2021/12/09 02:41:35;;;;;;;35.83;21.03;;;1.50;99.90;;;2.46;100.00;98874.38;5051981;28;20223;-62
2021/12/09 02:44:07;;;;;;;39.43;21.83;;;1.60;99.90;;;2.33;100.00;98869.00;5051553;28;20208;-63
2021/12/09 02:46:38;;;;;;;38.40;22.50;;;1.60;99.90;;;2.48;100.00;98869.69;5052180;28;20189;-63
2021/12/09 02:49:10;;;;;;;42.30;23.93;;;1.50;99.90;;;2.33;100.00;98874.31;5051933;28;20205;-63
2021/12/09 02:51:41;;;;;;;35.47;21.80;;;1.50;99.90;;;2.47;100.00;98878.66;5051989;28;20182;-63
2021/12/09 02:54:12;;;;;;;44.47;24.87;;;1.60;99.90;;;2.36;100.00;98881.91;5051492;28;20207;-63
2021/12/09 02:56:40;;;;;;;41.10;22.53;;;1.60;99.90;;;2.45;100.00;98878.03;5051820;28;20192;-63
2021/12/09 02:59:09;;;;;;;38.50;22.23;;;1.60;99.90;;;2.29;100.00;98877.59;5051697;28;20198;-63
2021/12/09 03:01:46;;;;;;;39.17;23.10;;;1.50;99.90;;;2.26;100.00;98880.66;5051636;28;20303;-63
2021/12/09 03:04:14;;;;;;;41.53;22.83;;;1.50;99.90;;;2.28;100.00;98881.28;5053308;28;20200;-63
2021/12/09 03:06:45;;;;;;;41.17;23.10;;;1.50;99.90;;;2.16;100.00;98890.81;5055238;28;20202;-63
2021/12/09 03:09:20;;;;;;;40.07;23.00;;;1.40;99.90;;;2.15;100.00;98884.69;5055527;28;20281;-63
2021/12/09 03:11:54;;;;;;;38.73;22.23;;;1.40;99.90;;;2.21;100.00;98883.06;5055466;28;20632;-63
2021/12/09 03:14:25;;;;;;;39.77;23.07;;;1.40;99.90;;;2.28;100.00;98878.63;5055225;28;20203;-63
2021/12/09 03:16:53;;;;;;;39.30;21.77;;;1.40;99.90;;;2.26;100.00;98885.97;5055560;28;20215;-63
2021/12/09 03:19:21;;;;;;;42.30;22.37;;;1.40;99.90;;;2.42;100.00;98899.72;5055315;28;20206;-63
2021/12/09 03:21:57;;;;;;;42.83;23.47;;;1.40;99.90;;;2.45;100.00;98904.63;5055154;28;20230;-63
2021/12/09 03:24:25;;;;;;;36.37;20.60;;;1.50;99.90;;;2.36;100.00;98916.47;5055577;28;20190;-62
2021/12/09 03:26:57;;;;;;;41.37;22.70;;;1.50;99.90;;;2.16;100.00;98920.84;5055424;28;20198;-63
2021/12/09 03:30:09;;;;;;;41.23;22.40;;;1.50;99.90;;;2.17;100.00;98925.16;5049352;28;20205;-63
2021/12/09 03:32:37;;;;;;;42.13;22.57;;;1.40;99.90;;;2.28;100.00;98915.81;5045291;28;20200;-63
2021/12/09 03:35:08;;;;;;;41.13;23.60;;;1.50;99.90;;;2.32;100.00;98899.25;5054625;28;20664;-62
2021/12/09 03:37:39;;;;;;;40.10;23.80;;;1.40;99.90;;;2.17;100.00;98903.06;5035252;28;20182;-63
2021/12/09 03:40:09;;;;;;;41.43;23.33;;;1.40;99.90;;;2.30;100.00;98903.16;5041004;28;20201;-63
2021/12/09 03:42:37;;;;;;;45.77;24.23;;;1.40;99.90;;;2.38;100.00;98901.09;5055346;28;20201;-64
2021/12/09 03:45:07;;;;;;;40.07;22.93;;;1.50;99.90;;;2.23;100.00;98916.38;5054537;28;20594;-63
2021/12/09 03:47:36;;;;;;;40.43;23.67;;;1.40;99.90;;;2.34;100.00;98923.81;5054720;28;20221;-62
2021/12/09 03:50:08;;;;;;;39.83;22.10;;;1.50;99.90;;;2.22;100.00;98933.34;5052908;28;20311;-64
2021/12/09 03:52:38;;;;;;;39.77;22.97;;;1.50;99.90;;;2.34;100.00;98934.44;5034621;28;20236;-63
2021/12/09 03:55:09;;;;;;;41.73;24.27;;;1.40;99.90;;;2.47;100.00;98929.16;5034623;28;20301;-63
2021/12/09 03:57:37;;;;;;;41.63;22.87;;;1.50;99.90;;;2.29;100.00;98926.22;5034935;28;20218;-63
2021/12/09 04:00:09;;;;;;;41.37;23.00;;;1.50;99.90;;;2.33;100.00;98916.81;5034705;28;20628;-63
2021/12/09 04:02:39;;;;;;;37.63;23.67;;;1.50;99.90;;;2.48;100.00;98898.94;5046726;28;20201;-63
2021/12/09 04:05:09;;;;;;;36.77;22.57;;;1.50;99.90;;;2.24;100.00;98887.97;5054144;28;20628;-63
2021/12/09 04:07:38;;;;;;;44.97;24.13;;;1.50;99.90;;;2.24;100.00;98886.16;5054580;28;20263;-62
2021/12/09 04:10:09;;;;;;;43.40;22.00;;;1.40;99.90;;;2.29;100.00;98904.16;5053764;28;20204;-63
2021/12/09 04:12:37;;;;;;;42.90;23.57;;;1.50;99.90;;;2.22;100.00;98917.41;5053670;28;20212;-64
2021/12/09 04:15:07;;;;;;;39.87;23.03;;;1.50;99.90;;;2.38;100.00;98916.25;5053487;28;20205;-62
2021/12/09 04:17:36;;;;;;;43.77;22.97;;;1.50;99.90;;;2.51;100.00;98908.31;5053544;28;20276;-63
2021/12/09 04:20:08;;;;;;;42.17;22.63;;;1.50;99.90;;;2.43;100.00;98906.69;5053884;28;20733;-62
2021/12/09 04:22:38;;;;;;;36.50;21.97;;;1.50;99.90;;;2.58;100.00;98911.00;5053795;28;20244;-63
2021/12/09 04:25:07;;;;;;;38.17;22.47;;;1.60;99.90;;;2.27;100.00;98911.50;5054535;28;20186;-64
2021/12/09 04:27:35;;;;;;;41.10;23.43;;;1.50;99.90;;;2.22;100.00;98912.09;5054325;28;20249;-63
2021/12/09 04:30:05;;;;;;;39.67;22.63;;;1.50;99.90;;;2.17;100.00;98905.72;5054372;28;20212;-64
2021/12/09 04:32:33;;;;;;;42.20;23.00;;;1.50;99.90;;;2.20;100.00;98895.53;5053789;28;20558;-62
2021/12/09 04:35:01;;;;;;;37.10;22.87;;;1.40;99.90;;;2.19;100.00;98895.72;5054259;28;20212;-62
2021/12/09 04:37:29;;;;;;;42.23;23.80;;;1.40;99.90;;;2.24;100.00;98899.44;5053792;28;20702;-62
2021/12/09 04:40:00;;;;;;;43.27;24.07;;;1.40;99.90;;;2.27;100.00;98909.66;5053642;28;20631;-62
2021/12/09 04:42:29;;;;;;;39.90;22.70;;;1.40;99.90;;;2.20;100.00;98906.16;5054113;28;20274;-63
2021/12/09 04:44:57;;;;;;;39.47;22.47;;;1.40;99.90;;;2.21;100.00;98893.69;5053687;28;20206;-63
2021/12/09 04:47:25;;;;;;;44.03;23.17;;;1.40;99.90;;;2.15;100.00;98894.47;5053012;28;20202;-63
2021/12/09 04:49:53;;;;;;;44.30;23.77;;;1.40;99.90;;;2.19;100.00;98882.44;5054092;28;20207;-63
2021/12/09 04:52:21;;;;;;;44.13;24.10;;;1.40;99.90;;;2.23;100.00;98881.03;5053350;28;20232;-63
2021/12/09 04:54:49;;;;;;;38.87;21.70;;;1.40;99.90;;;2.23;100.00;98891.66;5053429;28;20292;-62
2021/12/09 04:57:19;;;;;;;40.87;23.37;;;1.40;99.90;;;2.23;100.00;98896.97;5053586;28;20284;-63
2021/12/09 04:59:48;;;;;;;40.47;23.30;;;1.40;99.90;;;2.18;100.00;98894.09;5053647;28;20280;-62
2021/12/09 05:02:25;;;;;;;39.27;22.17;;;1.40;99.90;;;2.18;100.00;98899.41;5053005;28;20295;-64
2021/12/09 05:04:53;;;;;;;40.33;22.80;;;1.40;99.90;;;2.08;100.00;98913.03;5053376;28;20219;-63
2021/12/09 05:07:21;;;;;;;42.93;22.90;;;1.40;99.90;;;2.05;100.00;98918.75;5033341;28;20202;-62
2021/12/09 05:09:51;;;;;;;40.47;22.47;;;1.40;99.90;;;2.28;100.00;98934.41;5033514;28;20288;-64
2021/12/09 05:12:22;;;;;;;41.53;24.00;;;1.40;99.90;;;2.21;100.00;98933.53;5033387;28;20297;-63
2021/12/09 05:14:51;;;;;;;40.63;24.10;;;1.40;99.90;;;2.21;100.00;98946.81;5033268;28;20195;-64
2021/12/09 05:17:19;;;;;;;41.27;23.53;;;1.40;99.90;;;2.24;100.00;98949.06;5032788;28;20708;-62
2021/12/09 05:19:49;;;;;;;43.47;23.40;;;1.40;99.90;;;2.30;100.00;98948.31;5033007;28;20210;-63
2021/12/09 05:22:18;;;;;;;43.17;23.60;;;1.50;99.90;;;2.12;100.00;98946.16;5032902;28;20230;-62
2021/12/09 05:24:49;;;;;;;40.23;22.90;;;1.40;99.90;;;2.17;100.00;98951.69;5033034;28;20237;-63
2021/12/09 05:27:18;;;;;;;41.73;24.23;;;1.30;99.90;;;2.13;100.00;98952.31;5032464;28;20206;-63
2021/12/09 05:30:03;;;;;;;41.10;22.63;;;1.30;99.90;;;2.32;100.00;98949.75;5032877;28;20297;-62
2021/12/09 05:32:30;;;;;;;43.90;24.70;;;1.40;99.90;;;2.20;100.00;98940.69;5043885;28;20275;-63
2021/12/09 05:34:59;;;;;;;39.23;22.97;;;1.40;99.90;;;2.11;100.00;98933.91;5052880;28;20196;-63
2021/12/09 05:37:29;;;;;;;45.83;25.70;;;1.40;99.90;;;2.13;100.00;98933.72;5052535;28;20838;-63
2021/12/09 05:39:59;;;;;;;44.13;24.17;;;1.40;99.90;;;2.20;100.00;98921.25;5052800;28;20201;-63
2021/12/09 05:42:31;;;;;;;44.07;25.00;;;1.40;99.90;;;2.26;100.00;98921.31;5052404;28;20247;-62
2021/12/09 05:45:00;;;;;;;43.00;24.47;;;1.40;99.90;;;2.15;100.00;98921.03;5052483;28;20232;-63
2021/12/09 05:47:30;;;;;;;45.87;24.57;;;1.40;99.90;;;2.29;100.00;98920.91;5052023;28;20200;-63
2021/12/09 05:49:59;;;;;;;47.57;25.73;;;1.40;99.90;;;2.43;100.00;98930.59;5052363;28;20190;-63
2021/12/09 05:52:27;;;;;;;45.93;24.47;;;1.40;99.90;;;2.35;100.00;98933.41;5052442;28;20252;-63
2021/12/09 05:54:55;;;;;;;41.93;24.37;;;1.50;99.90;;;2.23;100.00;98940.28;5052363;28;20201;-61
2021/12/09 05:57:23;;;;;;;47.20;26.80;;;1.40;99.90;;;2.27;100.00;98944.19;5051906;28;20552;-64
2021/12/09 05:59:54;;;;;;;47.33;25.60;;;1.40;99.90;;;2.25;100.00;98956.84;5052489;28;20291;-64
2021/12/09 06:02:23;;;;;;;45.90;25.40;;;1.40;99.90;;;2.38;100.00;98953.44;5052106;28;20194;-62
2021/12/09 06:04:52;;;;;;;44.27;24.50;;;1.50;99.90;;;2.10;100.00;98948.19;5052360;28;20201;-63
2021/12/09 06:07:20;;;;;;;44.73;25.60;;;1.40;99.90;;;2.22;100.00;98954.59;5032469;28;20201;-62
2021/12/09 06:09:48;;;;;;;47.17;25.63;;;1.40;99.90;;;2.32;100.00;98959.53;5032153;28;20224;-63
2021/12/09 06:12:16;;;;;;;46.83;26.27;;;1.40;99.90;;;2.23;100.00;98952.75;5032003;28;20753;-64
2021/12/09 06:14:44;;;;;;;47.90;27.47;;;1.50;99.90;;;2.14;100.00;98949.44;5032365;28;20202;-63
2021/12/09 06:17:12;;;;;;;46.13;26.80;;;1.40;99.90;;;2.22;100.00;98956.41;5032059;28;20289;-63
2021/12/09 06:19:42;;;;;;;50.13;27.80;;;1.40;99.90;;;2.23;100.00;98964.19;5031976;28;20749;-64
2021/12/09 06:22:10;;;;;;;48.83;26.97;;;1.50;99.90;;;2.23;100.00;98960.72;5031913;28;20317;-63
2021/12/09 06:24:37;;;;;;;43.63;25.23;;;1.40;99.90;;;2.27;100.00;98969.94;5032099;28;20276;-63
2021/12/09 06:27:07;;;;;;;48.83;25.77;;;1.40;99.90;;;2.29;100.00;98973.22;5032097;28;20205;-63
2021/12/09 06:29:35;;;;;;;47.70;28.30;;;1.50;99.90;;;2.39;100.00;98977.16;5032079;28;20201;-63
2021/12/09 06:32:05;;;;;;;45.07;26.20;;;1.50;99.90;;;2.26;100.00;98977.09;5039062;28;20243;-63
2021/12/09 06:34:33;;;;;;;49.90;27.17;;;1.50;99.90;;;2.22;100.00;98975.84;5051537;28;20299;-63
2021/12/09 06:37:09;;;;;;;45.83;26.87;;;1.50;99.90;;;2.29;100.00;98982.00;5052132;28;20249;-62
2021/12/09 06:39:37;;;;;;;47.70;28.23;;;1.50;99.90;;;2.23;100.00;98979.31;5052367;28;20212;-63
2021/12/09 06:42:05;;;;;;;52.13;28.33;;;1.50;99.90;;;2.36;100.00;98982.88;5056028;28;20233;-63
2021/12/09 06:44:33;;;;;;;49.03;27.53;;;1.50;99.90;;;2.23;100.00;98977.47;5038164;28;20665;-64
2021/12/09 06:47:01;;;;;;;46.80;26.97;;;1.50;99.90;;;2.29;100.00;98978.53;5042455;28;20197;-63
2021/12/09 06:49:29;;;;;;;48.17;27.57;;;1.50;99.90;;;2.29;100.00;98986.50;5055535;28;20634;-64
2021/12/09 06:51:57;;;;;;;47.10;27.10;;;1.50;99.90;;;2.29;100.00;98987.31;5055389;28;20225;-63
2021/12/09 06:54:27;;;;;;;47.43;27.63;;;1.50;99.90;;;2.32;100.00;98983.44;5055496;28;20201;-62
2021/12/09 06:56:54;;;;;;;49.17;27.23;;;1.50;99.90;;;2.34;100.00;98982.25;5055767;28;20200;-64
2021/12/09 06:59:22;;;;;;;49.70;27.63;;;1.50;99.90;;;2.39;100.00;98990.44;5055470;28;20207;-64
2021/12/09 07:01:50;;;;;;;48.30;27.13;;;1.50;99.90;;;2.37;100.00;99003.09;5055501;28;20211;-64
2021/12/09 07:04:19;;;;;;;47.10;26.73;;;1.50;99.90;;;2.47;100.00;99005.38;5055306;28;20288;-63
2021/12/09 07:06:47;;;;;;;48.43;27.50;;;1.60;99.90;;;2.45;100.00;99012.75;5055555;28;20203;-62
2021/12/09 07:09:15;;;;;;;46.00;26.20;;;1.60;99.90;;;2.39;100.00;99002.91;5056105;28;20652;-64
2021/12/09 07:11:50;;;;;;;48.30;26.40;;;1.50;99.90;;;2.35;100.00;99007.78;5055475;28;20207;-64
2021/12/09 07:14:18;;;;;;;44.43;26.27;;;1.50;99.90;;;2.54;100.00;99014.22;5055705;28;20273;-63
2021/12/09 07:16:46;;;;;;;47.20;26.57;;;1.50;99.90;;;2.41;100.00;99006.19;5055818;28;20218;-64
2021/12/09 07:19:14;;;;;;;47.43;26.90;;;1.60;99.90;;;2.39;100.00;99014.38;5055655;28;20196;-63
2021/12/09 07:21:42;;;;;;;47.80;26.60;;;1.50;99.90;;;2.27;100.00;99017.75;5055302;28;20236;-63
2021/12/09 07:24:15;;;;;;;44.60;25.17;;;1.50;99.90;;;2.35;100.00;99012.31;5055752;28;20213;-64
2021/12/09 07:26:45;;;;;;;49.67;26.50;;;1.50;99.90;;;2.27;100.00;99002.63;5055433;28;20296;-63
2021/12/09 07:29:13;;;;;;;50.33;27.70;;;1.50;99.90;;;2.44;100.00;99003.13;5055629;28;20251;-63
2021/12/09 07:31:41;;;;;;;50.70;27.70;;;1.50;99.90;;;2.43;100.00;99012.13;5055144;28;20206;-64
2021/12/09 07:34:09;;;;;;;49.77;26.97;;;1.50;99.90;;;2.38;100.00;99009.25;5055267;28;20202;-64
2021/12/09 07:36:37;;;;;;;48.00;27.60;;;1.50;99.90;;;2.26;100.00;99022.25;5041302;28;20210;-64
2021/12/09 07:39:05;;;;;;;47.63;26.80;;;1.40;99.90;;;2.20;100.00;99025.69;5034986;28;20202;-63
2021/12/09 07:41:33;;;;;;;45.43;26.47;;;1.30;99.90;;;2.19;100.00;99029.34;5035136;28;20297;-64
2021/12/09 07:44:05;;;;;;;47.40;25.63;;;1.40;99.90;;;2.13;100.00;99039.94;5047635;28;20567;-64
2021/12/09 07:46:34;;;;;;;47.50;27.27;;;1.30;99.90;;;2.19;100.00;99039.16;5054884;28;20276;-63
2021/12/09 07:49:03;;;;;;;48.47;26.67;;;1.40;99.90;;;2.41;100.00;99030.09;5053898;28;20212;-65
2021/12/09 07:51:31;;;;;;;48.07;26.17;;;1.40;99.90;;;2.26;100.00;99022.25;5054862;28;20201;-63
2021/12/09 07:54:01;;;;;;;47.53;26.77;;;1.40;99.90;;;2.30;100.00;99022.69;5054484;28;20236;-64
2021/12/09 07:56:29;;;;;;;48.03;26.63;;;1.50;99.90;;;2.21;100.00;99019.38;5054674;28;20197;-63
2021/12/09 07:58:57;;;;;;;47.43;25.93;;;1.40;99.90;;;2.25;100.00;99017.94;5054268;28;20570;-63
2021/12/09 08:01:26;;;;;;;46.70;26.37;;;1.50;99.90;;;2.37;100.00;99027.00;5054581;28;20297;-63
2021/12/09 08:03:54;;;;;;;51.73;27.40;;;1.50;99.90;;;2.27;100.00;99031.03;5054546;28;20193;-63
2021/12/09 08:06:23;;;;;;;50.83;27.57;;;1.50;99.90;;;2.16;100.00;99027.09;5054569;28;20311;-70
2021/12/09 08:08:51;;;;;;;50.40;27.63;;;1.40;99.90;;;2.28;100.00;99027.38;5054039;28;20208;-72
2021/12/09 08:11:18;;;;;;;46.87;26.17;;;1.40;99.90;;;2.40;100.00;99031.94;5047777;28;20209;-71
2021/12/09 08:13:46;;;;;;;45.30;25.10;;;1.50;99.90;;;2.38;100.00;99039.28;5052129;28;20312;-72
2021/12/09 08:16:16;;;;;;;52.23;27.73;;;1.50;99.90;;;2.69;100.00;99030.06;5051362;28;20623;-69
2021/12/09 08:18:54;;;;;;;44.37;25.73;;;1.60;99.90;;;2.81;100.00;99031.16;5051290;28;20201;-63
2021/12/09 08:21:24;;;;;;;47.60;27.00;;;1.70;99.90;;;2.52;100.00;99040.16;5050794;28;20239;-68
2021/12/09 08:23:53;;;;;;;48.50;27.20;;;1.60;99.90;;;2.45;100.00;99044.66;5051580;28;20201;-65
2021/12/09 08:26:23;;;;;;;44.90;26.47;;;1.60;99.90;;;2.35;100.00;99033.56;5051299;28;20208;-71
2021/12/09 08:28:51;;;;;;;48.73;28.07;;;1.50;99.90;;;2.59;100.00;99018.97;5051086;28;20660;-68
2021/12/09 08:31:19;;;;;;;49.13;28.17;;;1.60;99.90;;;2.43;100.00;99017.44;5049627;28;20203;-68
2021/12/09 08:33:48;;;;;;;47.30;26.33;;;1.50;99.90;;;2.45;100.00;99020.75;5030933;28;20221;-67
2021/12/09 08:36:36;;;;;;;46.50;26.73;;;1.50;99.90;;;2.59;100.00;99005.69;5044440;28;20216;-65
2021/12/09 08:39:05;;;;;;;50.50;27.97;;;1.60;99.90;;;2.94;100.00;99008.09;5050810;28;20645;-69
2021/12/09 08:41:33;;;;;;;50.10;26.47;;;1.80;99.90;;;2.89;100.00;99007.03;5030538;28;20202;-69
2021/12/09 08:44:01;;;;;;;47.70;25.97;;;1.90;99.90;;;3.00;100.00;99003.78;5030989;28;20205;-68
2021/12/09 08:46:29;;;;;;;45.03;26.50;;;1.90;99.90;;;3.02;100.00;99004.41;5030217;28;20208;-69
2021/12/09 08:48:58;;;;;;;49.17;26.50;;;2.10;99.90;;;3.25;100.00;99011.03;5030921;28;20293;-69
2021/12/09 08:51:26;;;;;;;50.03;27.33;;;2.10;99.90;;;3.02;100.00;99015.88;5030551;28;20229;-66
2021/12/09 08:53:54;;;;;;;46.80;26.47;;;2.10;99.90;;;3.00;100.00;99017.09;5030701;28;20222;-65
2021/12/09 08:56:22;;;;;;;50.57;27.27;;;2.00;99.90;;;3.15;100.00;99020.41;5030803;28;20206;-65
2021/12/09 08:58:50;;;;;;;46.87;27.00;;;2.10;99.90;;;3.18;100.00;99010.19;5030376;28;20620;-66
2021/12/09 09:01:18;;;;;;;44.40;26.73;;;2.20;99.90;;;3.23;100.00;99009.59;5030793;28;20206;-66
2021/12/09 09:03:46;;;;;;;45.97;26.00;;;2.30;99.90;;;3.18;100.00;99017.38;5050157;28;20234;-64
2021/12/09 09:06:16;;;;;;;49.80;26.77;;;2.20;99.90;;;3.11;100.00;99017.31;5050184;28;20204;-66
2021/12/09 09:08:45;;;;;;;44.13;27.03;;;2.20;99.90;;;3.27;100.00;99013.47;5050558;28;20193;-66
2021/12/09 09:11:13;;;;;;;49.27;26.60;;;2.20;99.90;;;3.10;100.00;99030.81;5050279;28;20204;-66
2021/12/09 09:13:41;;;;;;;48.03;27.73;;;2.10;99.90;;;3.18;100.00;99039.44;5049930;28;20772;-65
2021/12/09 09:16:10;;;;;;;49.50;28.03;;;2.20;99.90;;;3.15;100.00;99045.19;5049975;28;20248;-61
2021/12/09 09:18:38;;;;;;;46.97;27.60;;;2.20;99.90;;;3.18;100.00;99046.63;5049676;28;20216;-63
2021/12/09 09:21:06;;;;;;;51.13;27.60;;;2.20;99.90;;;3.10;100.00;99063.56;5049521;28;20240;-66
2021/12/09 09:23:36;;;;;;;47.77;27.30;;;2.20;99.90;;;3.05;100.00;99063.34;5049894;28;20198;-67
2021/12/09 09:26:05;;;;;;;50.20;26.23;;;2.20;99.90;;;3.17;100.00;99053.78;5049239;28;20274;-66
2021/12/09 09:28:33;;;;;;;48.87;27.30;;;2.20;99.90;;;3.18;100.00;99057.28;5049533;28;20212;-62
2021/12/09 09:31:03;;;;;;;47.03;27.27;;;2.20;99.90;;;3.05;100.00;99071.34;5049533;28;20205;-61
2021/12/09 09:33:32;;;;;;;50.37;27.90;;;2.20;99.90;;;3.08;100.00;99065.59;5030438;28;20246;-61
2021/12/09 09:36:01;;;;;;;52.97;28.17;;;2.20;99.90;;;3.13;100.00;99075.66;5037672;28;20202;-60
2021/12/09 09:38:29;;;;;;;48.70;27.63;;;2.20;99.90;;;3.22;100.00;99071.78;5049582;28;20242;-60
2021/12/09 09:41:08;;;;;;;52.27;28.87;;;2.20;99.90;;;3.31;100.00;99083.91;5048835;28;20598;-60
2021/12/09 09:43:56;;;;;;;47.93;27.60;;;2.20;99.90;;;3.25;100.00;99084.69;5049445;28;20182;-60
2021/12/09 09:46:28;;;;;;;51.00;27.77;;;2.30;99.90;;;3.09;100.00;99082.41;5049336;28;20194;-61
2021/12/09 09:49:01;;;;;;;55.57;29.90;;;2.20;99.90;;;3.26;100.00;99073.06;5038618;28;20305;-61
2021/12/09 09:51:31;;;;;;;50.33;28.77;;;2.20;99.90;;;3.29;100.00;99078.78;5049313;28;20194;-64
2021/12/09 09:54:01;;;;;;;50.13;27.50;;;2.20;99.90;;;3.12;100.00;99080.16;5049348;28;20224;-64
2021/12/09 09:56:33;;;;;;;50.50;28.10;;;2.20;99.90;;;3.02;100.00;99079.72;5048761;28;20209;-63
2021/12/09 09:59:06;;;;;;;49.43;28.03;;;2.10;99.90;;;3.25;100.00;99069.56;5040465;28;20225;-64
2021/12/09 10:01:39;;;;;;;50.43;27.87;;;2.20;99.90;;;3.12;100.00;99076.66;5049249;28;20295;-60
2021/12/09 10:04:14;;;;;;;51.27;28.57;;;2.20;99.90;;;3.05;100.00;99074.00;5038547;28;20576;-61
2021/12/09 10:06:46;;;;;;;55.13;29.60;;;2.20;99.90;;;3.12;100.00;99071.34;5043119;28;20212;-60
2021/12/09 10:09:16;;;;;;;52.07;28.27;;;2.20;99.90;;;3.10;100.00;99066.22;5038844;28;20245;-61
2021/12/09 10:11:47;;;;;;;53.47;30.10;;;2.30;99.90;;;3.14;100.00;99075.47;5040248;28;20201;-66
2021/12/09 10:14:20;;;;;;;51.80;30.20;;;2.30;99.90;;;3.15;100.00;99076.25;5048920;28;20237;-68
2021/12/09 10:17:03;;;;;;;53.73;29.53;;;2.30;99.90;;;3.15;100.00;99074.44;5048741;28;20190;-63
2021/12/09 10:19:33;;;;;;;53.97;30.00;;;2.30;99.90;;;3.39;100.00;99076.56;5044401;28;20660;-64
2021/12/09 10:22:09;;;;;;;55.03;30.93;;;2.40;99.90;;;3.38;100.00;99076.78;5042802;28;20242;-64
2021/12/09 10:24:42;;;;;;;51.03;28.17;;;2.40;99.90;;;3.19;100.00;99070.38;5042102;28;20252;-65